createdAt,value
2023-03-29T00:00:36.551Z,6.30
2023-03-29T00:03:05.406Z,6.30
2023-03-29T00:05:35.593Z,6.30
2023-03-29T00:08:05.087Z,6.30
2023-03-29T00:10:34.198Z,6.30
2023-03-29T00:13:02.777Z,6.30
2023-03-29T00:15:31.384Z,6.40
2023-03-29T00:17:59.761Z,6.40
2023-03-29T00:20:28.924Z,6.40
2023-03-29T00:22:57.172Z,6.40
2023-03-29T00:25:26.721Z,6.40
2023-03-29T00:27:54.790Z,6.40
2023-03-29T00:30:22.932Z,6.50
2023-03-29T00:32:51.411Z,6.50
2023-03-29T00:35:19.965Z,6.50
2023-03-29T00:37:51.044Z,6.50
2023-03-29T00:40:19.320Z,6.60
2023-03-29T00:42:48.804Z,6.60
2023-03-29T00:45:22.681Z,6.70
2023-03-29T00:47:53.085Z,6.80
2023-03-29T00:50:25.903Z,6.80
2023-03-29T00:53:00.904Z,6.80
2023-03-29T00:55:33.552Z,6.80
2023-03-29T00:58:05.517Z,6.80
2023-03-29T01:00:38.333Z,6.80
2023-03-29T01:03:13.549Z,6.80
2023-03-29T01:05:45.666Z,6.80
2023-03-29T01:08:18.337Z,6.80
2023-03-29T01:10:51.837Z,6.90
2023-03-29T01:13:27.315Z,6.90
2023-03-29T01:15:58.137Z,6.90
2023-03-29T01:18:26.333Z,6.90
2023-03-29T01:21:10.357Z,6.90
2023-03-29T01:23:58.315Z,7.00
2023-03-29T01:26:35.973Z,6.90
2023-03-29T01:29:10.745Z,7.00
2023-03-29T01:31:43.386Z,7.00
2023-03-29T01:34:13.982Z,6.90
2023-03-29T01:36:49.416Z,6.90
2023-03-29T01:39:19.277Z,7.00
2023-03-29T01:41:53.739Z,7.00
2023-03-29T01:44:30.771Z,6.90
2023-03-29T01:47:09.645Z,6.90
2023-03-29T01:49:42.449Z,6.90
2023-03-29T01:52:16.454Z,6.90
2023-03-29T01:54:48.875Z,6.90
2023-03-29T01:57:17.826Z,6.90
2023-03-29T01:59:49.015Z,6.90
2023-03-29T02:02:18.657Z,6.80
2023-03-29T02:04:51.769Z,6.80
2023-03-29T02:07:25.195Z,6.80
2023-03-29T02:09:55.644Z,6.90
2023-03-29T02:12:23.921Z,6.90
2023-03-29T02:14:53.978Z,6.90
2023-03-29T02:17:24.360Z,6.90
2023-03-29T02:19:59.412Z,6.90
2023-03-29T02:22:31.591Z,6.90
2023-03-29T02:25:03.689Z,6.90
2023-03-29T02:27:31.993Z,6.90
2023-03-29T02:30:01.756Z,6.90
2023-03-29T02:32:34.990Z,6.90
2023-03-29T02:35:08.696Z,6.90
2023-03-29T02:37:41.046Z,6.90
2023-03-29T02:40:12.610Z,6.90
2023-03-29T02:42:41.519Z,6.90
2023-03-29T02:45:13.866Z,6.90
2023-03-29T02:47:45.635Z,6.90
2023-03-29T02:50:14.298Z,7.00
2023-03-29T02:52:47.187Z,7.00
2023-03-29T02:55:18.834Z,7.00
2023-03-29T02:57:46.988Z,7.00
2023-03-29T03:00:18.818Z,7.00
2023-03-29T03:02:48.608Z,7.10
2023-03-29T03:05:17.526Z,7.10
2023-03-29T03:07:46.194Z,7.00
2023-03-29T03:10:14.607Z,7.10
2023-03-29T03:12:42.750Z,7.00
2023-03-29T03:15:11.459Z,7.10
2023-03-29T03:17:40.979Z,7.10
2023-03-29T03:20:13.067Z,7.10
2023-03-29T03:22:42.453Z,7.10
2023-03-29T03:25:13.933Z,7.10
2023-03-29T03:27:42.117Z,7.10
2023-03-29T03:30:11.868Z,7.10
2023-03-29T03:32:41.490Z,7.10
2023-03-29T03:35:11.654Z,7.20
2023-03-29T03:37:40.151Z,7.20
2023-03-29T03:40:09.937Z,7.10
2023-03-29T03:42:38.138Z,7.10
2023-03-29T03:45:08.288Z,7.10
2023-03-29T03:47:38.490Z,7.20
2023-03-29T03:50:09.673Z,7.10
2023-03-29T03:52:37.750Z,7.10
2023-03-29T03:55:06.612Z,7.10
2023-03-29T03:57:37.496Z,7.10
2023-03-29T04:00:19.187Z,7.10
2023-03-29T04:02:48.754Z,7.20
2023-03-29T04:05:20.017Z,7.20
2023-03-29T04:07:48.223Z,7.20
2023-03-29T04:10:16.452Z,7.20
2023-03-29T04:12:45.034Z,7.20
2023-03-29T04:15:13.458Z,7.20
2023-03-29T04:17:41.671Z,7.20
2023-03-29T04:20:12.686Z,7.20
2023-03-29T04:22:42.445Z,7.20
2023-03-29T04:25:11.780Z,7.20
2023-03-29T04:27:40.735Z,7.20
2023-03-29T04:30:09.850Z,7.20
2023-03-29T04:32:37.992Z,7.20
2023-03-29T04:35:06.965Z,7.20
2023-03-29T04:37:35.306Z,7.30
2023-03-29T04:40:09.203Z,7.30
2023-03-29T04:42:37.713Z,7.30
2023-03-29T04:45:07.314Z,7.30
2023-03-29T04:47:36.650Z,7.30
2023-03-29T04:50:05.559Z,7.30
2023-03-29T04:52:33.579Z,7.30
2023-03-29T04:55:02.337Z,7.20
2023-03-29T04:57:32.281Z,7.20
2023-03-29T05:00:00.481Z,7.20
2023-03-29T05:02:31.105Z,7.20
2023-03-29T05:04:59.254Z,7.30
2023-03-29T05:07:27.908Z,7.30
2023-03-29T05:09:56.103Z,7.30
2023-03-29T05:12:24.314Z,7.30
2023-03-29T05:14:54.112Z,7.30
2023-03-29T05:17:22.580Z,7.40
2023-03-29T05:19:50.811Z,7.40
2023-03-29T05:22:18.854Z,7.40
2023-03-29T05:24:47.047Z,7.40
2023-03-29T05:27:15.089Z,7.40
2023-03-29T05:29:44.596Z,7.30
2023-03-29T05:32:15.014Z,7.40
2023-03-29T05:34:43.407Z,7.40
2023-03-29T05:37:11.675Z,7.40
2023-03-29T05:39:39.881Z,7.40
2023-03-29T05:42:07.943Z,7.40
2023-03-29T05:44:36.437Z,7.40
2023-03-29T05:47:04.691Z,7.40
2023-03-29T05:49:34.360Z,7.50
2023-03-29T05:52:02.510Z,7.50
2023-03-29T05:54:31.153Z,7.50
2023-03-29T05:56:59.355Z,7.50
2023-03-29T05:59:29.714Z,7.50
2023-03-29T06:02:00.346Z,7.60
2023-03-29T06:04:29.013Z,7.60
2023-03-29T06:07:00.351Z,7.60
2023-03-29T06:09:28.684Z,7.70
2023-03-29T06:11:58.912Z,7.70
2023-03-29T06:14:27.737Z,7.70
2023-03-29T06:16:56.709Z,7.80
2023-03-29T06:19:24.990Z,7.80
2023-03-29T06:21:53.778Z,7.90
2023-03-29T06:24:25.163Z,8.00
2023-03-29T06:26:53.725Z,8.00
2023-03-29T06:29:31.090Z,8.10
2023-03-29T06:31:59.127Z,8.10
2023-03-29T06:34:27.217Z,8.10
2023-03-29T06:36:55.233Z,8.10
2023-03-29T06:39:26.366Z,8.10
2023-03-29T06:41:55.479Z,8.20
2023-03-29T06:44:23.759Z,8.20
2023-03-29T06:46:51.792Z,8.20
2023-03-29T06:49:19.984Z,8.30
2023-03-29T06:51:48.734Z,8.30
2023-03-29T06:54:17.022Z,8.40
2023-03-29T06:56:47.438Z,8.40
2023-03-29T06:59:15.456Z,8.50
2023-03-29T07:01:45.084Z,8.60
2023-03-29T07:04:13.925Z,8.60
2023-03-29T07:06:48.308Z,8.60
2023-03-29T07:09:19.379Z,8.60
2023-03-29T07:11:50.384Z,8.70
2023-03-29T07:14:18.786Z,8.80
2023-03-29T07:16:47.386Z,8.80
2023-03-29T07:19:15.515Z,8.90
2023-03-29T07:21:43.671Z,8.90
2023-03-29T07:24:11.646Z,8.90
2023-03-29T07:26:46.349Z,9.00
2023-03-29T07:29:22.881Z,9.10
2023-03-29T07:31:51.263Z,9.20
2023-03-29T07:34:19.279Z,9.20
2023-03-29T07:36:47.802Z,9.20
2023-03-29T07:39:16.032Z,9.20
2023-03-29T07:41:44.018Z,9.30
2023-03-29T07:44:12.094Z,9.30
2023-03-29T07:46:42.828Z,9.40
2023-03-29T07:49:10.882Z,9.50
2023-03-29T07:51:38.819Z,9.50
2023-03-29T07:54:07.853Z,9.60
2023-03-29T07:56:36.102Z,9.60
2023-03-29T07:59:04.125Z,9.60
2023-03-29T08:01:32.203Z,9.60
2023-03-29T08:04:01.852Z,9.70
2023-03-29T08:06:29.938Z,9.70
2023-03-29T08:08:58.408Z,9.80
2023-03-29T08:11:26.346Z,9.80
2023-03-29T08:13:54.348Z,9.80
2023-03-29T08:16:22.399Z,10.00
2023-03-29T08:18:50.364Z,10.00
2023-03-29T08:21:19.744Z,10.10
2023-03-29T08:23:47.784Z,10.10
2023-03-29T08:26:16.129Z,10.10
2023-03-29T08:28:44.283Z,10.10
2023-03-29T08:31:12.846Z,10.10
2023-03-29T08:33:42.336Z,10.10
2023-03-29T08:36:10.946Z,10.20
2023-03-29T08:38:40.928Z,10.20
2023-03-29T08:41:28.324Z,10.10
2023-03-29T08:44:13.750Z,10.20
2023-03-29T08:46:49.775Z,10.20
2023-03-29T08:49:19.888Z,10.30
2023-03-29T08:51:51.321Z,10.30
2023-03-29T08:54:26.904Z,10.40
2023-03-29T08:56:59.621Z,10.40
2023-03-29T08:59:30.721Z,10.40
2023-03-29T09:02:01.440Z,10.50
2023-03-29T09:04:32.287Z,10.60
2023-03-29T09:07:00.693Z,10.70
2023-03-29T09:09:33.302Z,10.80
2023-03-29T09:12:13.059Z,10.80
2023-03-29T09:14:57.224Z,10.90
2023-03-29T09:17:40.060Z,11.00
2023-03-29T09:20:20.514Z,11.00
2023-03-29T09:22:57.964Z,11.10
2023-03-29T09:25:47.061Z,11.20
2023-03-29T09:28:27.090Z,11.20
2023-03-29T09:31:00.974Z,11.30
2023-03-29T09:33:37.265Z,11.30
2023-03-29T09:36:12.312Z,11.30
2023-03-29T09:38:43.535Z,11.30
2023-03-29T09:41:24.853Z,11.40
2023-03-29T09:43:55.692Z,11.50
2023-03-29T09:46:28.428Z,11.50
2023-03-29T09:48:58.151Z,11.70
2023-03-29T09:51:29.742Z,11.60
2023-03-29T09:54:00.485Z,11.80
2023-03-29T09:56:30.619Z,11.90
2023-03-29T09:58:58.961Z,11.90
2023-03-29T10:01:37.901Z,11.80
2023-03-29T10:04:09.320Z,11.90
2023-03-29T10:06:38.889Z,12.00
2023-03-29T10:09:17.450Z,12.10
2023-03-29T10:11:50.554Z,12.10
2023-03-29T10:14:20.894Z,12.20
2023-03-29T10:16:57.506Z,12.30
2023-03-29T10:19:30.317Z,12.10
2023-03-29T10:22:01.679Z,12.10
2023-03-29T10:24:30.427Z,12.10
2023-03-29T10:27:03.480Z,12.20
2023-03-29T10:29:37.959Z,12.10
2023-03-29T10:32:16.184Z,12.00
2023-03-29T10:34:46.528Z,12.00
2023-03-29T10:37:19.080Z,12.00
2023-03-29T10:39:49.724Z,12.10
2023-03-29T10:42:24.083Z,12.00
2023-03-29T10:44:57.364Z,11.90
2023-03-29T10:47:26.549Z,12.00
2023-03-29T10:49:57.408Z,12.00
2023-03-29T10:52:26.210Z,12.00
2023-03-29T10:54:56.968Z,12.00
2023-03-29T10:57:35.158Z,12.00
2023-03-29T11:00:08.278Z,12.00
2023-03-29T11:03:05.925Z,12.10
2023-03-29T11:05:40.055Z,12.30
2023-03-29T11:08:26.747Z,12.40
2023-03-29T11:11:04.194Z,12.50
2023-03-29T11:13:42.983Z,12.40
2023-03-29T11:16:21.704Z,12.30
2023-03-29T11:19:11.075Z,12.40
2023-03-29T11:21:46.888Z,12.50
2023-03-29T11:24:28.745Z,12.40
2023-03-29T11:27:27.434Z,12.40
2023-03-29T11:30:08.909Z,12.40
2023-03-29T11:32:47.430Z,12.60
2023-03-29T11:35:29.348Z,12.80
2023-03-29T11:38:01.943Z,12.90
2023-03-29T11:40:43.397Z,12.90
2023-03-29T11:43:15.499Z,12.90
2023-03-29T11:45:52.578Z,12.90
2023-03-29T11:48:25.393Z,12.90
2023-03-29T11:50:59.527Z,12.90
2023-03-29T11:53:32.532Z,12.80
2023-03-29T11:56:10.515Z,12.80
2023-03-29T11:58:42.933Z,12.90
2023-03-29T12:01:17.840Z,13.00
2023-03-29T12:03:51.701Z,13.00
2023-03-29T12:06:23.592Z,12.90
2023-03-29T12:08:55.974Z,13.00
2023-03-29T12:11:30.645Z,13.00
2023-03-29T12:14:04.574Z,12.90
2023-03-29T12:16:39.340Z,12.90
2023-03-29T12:19:18.532Z,12.90
2023-03-29T12:21:48.150Z,12.80
2023-03-29T12:24:19.079Z,12.70
2023-03-29T12:27:20.519Z,12.60
2023-03-29T12:30:21.048Z,12.60
2023-03-29T12:33:10.418Z,12.60
2023-03-29T12:35:48.632Z,12.70
2023-03-29T12:38:21.757Z,12.60
2023-03-29T12:40:56.809Z,12.70
2023-03-29T12:43:29.163Z,12.70
2023-03-29T12:46:03.834Z,12.80
2023-03-29T12:48:35.801Z,12.80
2023-03-29T12:51:08.240Z,12.90
2023-03-29T12:53:40.895Z,13.10
2023-03-29T12:56:18.321Z,13.20
2023-03-29T12:59:18.711Z,13.40
2023-03-29T13:02:00.328Z,13.40
2023-03-29T13:04:51.383Z,13.60
2023-03-29T13:07:31.171Z,13.60
2023-03-29T13:10:01.488Z,13.60
2023-03-29T13:12:33.593Z,13.60
2023-03-29T13:15:03.890Z,13.70
2023-03-29T13:17:43.316Z,13.60
2023-03-29T13:20:30.695Z,13.70
2023-03-29T13:23:10.518Z,13.90
2023-03-29T13:25:52.551Z,14.20
2023-03-29T13:28:36.631Z,14.50
2023-03-29T13:31:14.024Z,14.60
2023-03-29T13:34:00.591Z,14.60
2023-03-29T13:36:52.288Z,14.50
2023-03-29T13:39:24.026Z,14.50
2023-03-29T13:41:54.265Z,14.40
2023-03-29T13:44:30.236Z,14.50
2023-03-29T13:47:17.427Z,14.60
2023-03-29T13:49:53.474Z,14.60
2023-03-29T13:52:27.325Z,14.60
2023-03-29T13:55:00.711Z,14.60
2023-03-29T13:57:36.011Z,14.60
2023-03-29T14:00:17.871Z,14.70
2023-03-29T14:02:50.360Z,14.70
2023-03-29T14:05:22.180Z,14.70
2023-03-29T14:07:54.397Z,14.70
2023-03-29T14:10:26.816Z,14.80
2023-03-29T14:12:57.419Z,14.90
2023-03-29T14:15:28.665Z,14.90
2023-03-29T14:18:00.348Z,14.90
2023-03-29T14:20:29.704Z,14.90
2023-03-29T14:22:59.731Z,14.90
2023-03-29T14:25:30.417Z,14.90
2023-03-29T14:27:58.646Z,15.00
2023-03-29T14:30:29.434Z,15.10
2023-03-29T14:32:57.685Z,15.10
2023-03-29T14:35:32.323Z,15.30
2023-03-29T14:38:02.526Z,15.30
2023-03-29T14:40:32.122Z,15.30
2023-03-29T14:43:05.628Z,15.40
2023-03-29T14:45:33.929Z,15.40
2023-03-29T14:48:02.466Z,15.40
2023-03-29T14:50:31.600Z,15.40
2023-03-29T14:53:02.554Z,15.40
2023-03-29T14:55:31.025Z,15.40
2023-03-29T14:58:00.224Z,15.40
2023-03-29T15:00:31.459Z,15.40
2023-03-29T15:03:01.761Z,15.40
2023-03-29T15:05:35.676Z,15.40
2023-03-29T15:08:07.362Z,15.40
2023-03-29T15:10:37.745Z,15.40
2023-03-29T15:13:07.750Z,15.50
2023-03-29T15:15:39.156Z,15.40
2023-03-29T15:18:09.145Z,15.50
2023-03-29T15:20:39.989Z,15.60
2023-03-29T15:23:22.654Z,15.70
2023-03-29T15:25:54.957Z,15.50
2023-03-29T15:28:28.978Z,15.40
2023-03-29T15:33:35.870Z,15.50
2023-03-29T15:36:05.720Z,15.50
2023-03-29T15:38:43.030Z,15.40
2023-03-29T15:41:11.903Z,15.30
2023-03-29T15:43:40.103Z,15.30
2023-03-29T15:46:08.621Z,15.30
2023-03-29T15:48:37.402Z,15.30
2023-03-29T15:51:06.920Z,15.30
2023-03-29T15:53:36.696Z,15.30
2023-03-29T15:56:08.035Z,15.20
2023-03-29T15:58:37.958Z,15.20
2023-03-29T16:01:16.020Z,15.20
2023-03-29T16:03:47.622Z,15.20
2023-03-29T16:06:17.608Z,15.10
2023-03-29T16:08:50.624Z,15.10
2023-03-29T16:11:18.807Z,15.00
2023-03-29T16:13:47.021Z,14.90
2023-03-29T16:16:15.135Z,14.90
2023-03-29T16:18:43.568Z,14.90
2023-03-29T16:21:14.811Z,14.80
2023-03-29T16:23:43.980Z,14.80
2023-03-29T16:26:16.041Z,14.70
2023-03-29T16:28:44.625Z,14.70
2023-03-29T16:31:13.816Z,14.70
2023-03-29T16:33:42.490Z,14.60
2023-03-29T16:36:11.128Z,14.60
2023-03-29T16:38:39.236Z,14.50
2023-03-29T16:41:08.089Z,14.50
2023-03-29T16:43:38.759Z,14.50
2023-03-29T16:46:08.931Z,14.40
2023-03-29T16:48:37.343Z,14.40
2023-03-29T16:51:06.232Z,14.40
2023-03-29T16:53:34.715Z,14.40
2023-03-29T16:56:03.306Z,14.30
2023-03-29T16:58:31.459Z,14.30
2023-03-29T17:01:09.668Z,14.30
2023-03-29T17:03:37.991Z,14.30
2023-03-29T17:06:07.621Z,14.30
2023-03-29T17:08:35.932Z,14.20
2023-03-29T17:11:04.305Z,14.20
2023-03-29T17:13:32.447Z,14.20
2023-03-29T17:16:02.532Z,14.20
2023-03-29T17:18:30.942Z,14.20
2023-03-29T17:21:00.044Z,14.20
2023-03-29T17:23:28.187Z,14.10
2023-03-29T17:25:56.630Z,14.10
2023-03-29T17:28:25.093Z,14.10
2023-03-29T17:30:53.444Z,14.10
2023-03-29T17:33:26.298Z,14.10
2023-03-29T17:35:54.486Z,14.00
2023-03-29T17:38:22.845Z,14.00
2023-03-29T17:40:54.708Z,14.00
2023-03-29T17:43:23.050Z,14.00
2023-03-29T17:45:55.592Z,13.90
2023-03-29T17:48:25.839Z,13.90
2023-03-29T17:50:56.580Z,13.90
2023-03-29T17:53:25.077Z,13.80
2023-03-29T17:55:53.358Z,13.80
2023-03-29T17:58:21.694Z,13.70
2023-03-29T18:00:50.030Z,13.70
2023-03-29T18:03:18.534Z,13.70
2023-03-29T18:05:48.112Z,13.60
2023-03-29T18:08:16.884Z,13.60
2023-03-29T18:10:45.150Z,13.50
2023-03-29T18:13:14.705Z,13.50
2023-03-29T18:15:44.096Z,13.50
2023-03-29T18:18:12.361Z,13.40
2023-03-29T18:20:40.673Z,13.40
2023-03-29T18:23:10.359Z,13.40
2023-03-29T18:25:38.757Z,13.40
2023-03-29T18:28:07.105Z,13.30
2023-03-29T18:30:36.266Z,13.30
2023-03-29T18:33:04.592Z,13.30
2023-03-29T18:35:32.825Z,13.30
2023-03-29T18:38:01.420Z,13.20
2023-03-29T18:40:31.178Z,13.30
2023-03-29T18:42:59.334Z,13.20
2023-03-29T18:45:28.779Z,13.10
2023-03-29T18:47:57.132Z,13.10
2023-03-29T18:50:25.473Z,13.10
2023-03-29T18:52:53.950Z,13.00
2023-03-29T18:55:22.195Z,13.00
2023-03-29T18:57:51.622Z,13.00
2023-03-29T19:00:20.442Z,13.00
2023-03-29T19:02:48.979Z,13.00
2023-03-29T19:05:17.415Z,13.00
2023-03-29T19:07:45.655Z,12.90
2023-03-29T19:10:14.223Z,13.00
2023-03-29T19:12:42.440Z,13.00
2023-03-29T19:15:13.778Z,12.90
2023-03-29T19:17:42.012Z,13.00
2023-03-29T19:20:12.005Z,12.90
2023-03-29T19:22:41.064Z,12.90
2023-03-29T19:25:10.549Z,12.90
2023-03-29T19:27:38.981Z,12.90
2023-03-29T19:30:09.207Z,12.80
2023-03-29T19:32:38.975Z,12.90
2023-03-29T19:35:08.201Z,12.90
2023-03-29T19:37:36.492Z,12.90
2023-03-29T19:40:06.652Z,12.90
2023-03-29T19:42:35.807Z,12.80
2023-03-29T19:45:04.996Z,12.80
2023-03-29T19:47:33.222Z,12.80
2023-03-29T19:50:04.311Z,12.80
2023-03-29T19:52:32.866Z,12.80
2023-03-29T19:55:01.403Z,12.80
2023-03-29T19:57:30.809Z,12.80
2023-03-29T19:59:59.170Z,12.80
2023-03-29T20:02:27.449Z,12.80
2023-03-29T20:04:57.686Z,12.80
2023-03-29T20:07:27.310Z,12.80
2023-03-29T20:09:55.735Z,12.80
2023-03-29T20:12:23.894Z,12.70
2023-03-29T20:14:52.030Z,12.70
2023-03-29T20:17:20.186Z,12.70
2023-03-29T20:19:48.278Z,12.80
2023-03-29T20:22:16.387Z,12.70
2023-03-29T20:24:46.152Z,12.80
2023-03-29T20:27:15.818Z,12.70
2023-03-29T20:29:43.942Z,12.70
2023-03-29T20:32:12.341Z,12.70
2023-03-29T20:34:40.870Z,12.70
2023-03-29T20:37:09.115Z,12.70
2023-03-29T20:39:37.275Z,12.60
2023-03-29T20:42:07.402Z,12.70
2023-03-29T20:44:35.624Z,12.70
2023-03-29T20:47:04.999Z,12.70
2023-03-29T20:49:37.300Z,12.70
2023-03-29T20:52:08.404Z,12.60
2023-03-29T20:54:37.522Z,12.70
2023-03-29T20:57:07.871Z,12.80
2023-03-29T20:59:37.984Z,12.80
2023-03-29T21:02:06.416Z,12.70
2023-03-29T21:04:35.059Z,12.70
2023-03-29T21:07:05.040Z,12.70
2023-03-29T21:09:34.171Z,12.70
2023-03-29T21:12:02.840Z,12.70
2023-03-29T21:14:33.128Z,12.70
2023-03-29T21:17:01.461Z,12.70
2023-03-29T21:19:29.726Z,12.60
2023-03-29T21:21:58.157Z,12.60
2023-03-29T21:24:26.420Z,12.60
2023-03-29T21:26:54.753Z,12.60
2023-03-29T21:29:22.964Z,12.60
2023-03-29T21:31:52.484Z,12.60
2023-03-29T21:34:20.671Z,12.60
2023-03-29T21:36:48.895Z,12.60
2023-03-29T21:39:16.994Z,12.50
2023-03-29T21:41:45.141Z,12.50
2023-03-29T21:44:13.279Z,12.50
2023-03-29T21:46:41.491Z,12.50
2023-03-29T21:49:12.047Z,12.50
2023-03-29T21:51:39.998Z,12.50
2023-03-29T21:54:08.339Z,12.60
2023-03-29T21:56:36.607Z,12.60
2023-03-29T21:59:05.408Z,12.70
2023-03-29T22:01:33.536Z,12.70
2023-03-29T22:04:01.842Z,12.70
2023-03-29T22:06:31.541Z,12.70
2023-03-29T22:09:00.755Z,12.70
2023-03-29T22:11:29.586Z,12.80
2023-03-29T22:13:58.219Z,12.80
2023-03-29T22:16:28.352Z,12.90
2023-03-29T22:18:56.501Z,12.90
2023-03-29T22:21:26.796Z,13.00
2023-03-29T22:23:57.655Z,13.00
2023-03-29T22:26:28.281Z,13.00
2023-03-29T22:28:57.137Z,13.00
2023-03-29T22:31:27.072Z,12.90
2023-03-29T22:33:55.644Z,12.90
2023-03-29T22:36:25.493Z,13.00
2023-03-29T22:38:54.036Z,12.90
2023-03-29T22:41:24.851Z,12.90
2023-03-29T22:43:53.575Z,13.00
2023-03-29T22:46:22.388Z,13.00
2023-03-29T22:48:51.100Z,13.00
2023-03-29T22:51:19.576Z,13.00
2023-03-29T22:53:47.668Z,13.10
2023-03-29T22:56:16.384Z,13.10
2023-03-29T22:58:46.012Z,13.00
2023-03-29T23:01:14.593Z,13.00
2023-03-29T23:03:42.693Z,13.00
2023-03-29T23:06:11.062Z,13.00
2023-03-29T23:08:39.387Z,13.10
2023-03-29T23:11:08.132Z,12.90
2023-03-29T23:13:36.281Z,13.00
2023-03-29T23:16:06.411Z,13.10
2023-03-29T23:18:37.392Z,13.00
2023-03-29T23:21:07.588Z,13.00
2023-03-29T23:23:36.843Z,12.90
2023-03-29T23:26:05.569Z,12.90
2023-03-29T23:28:34.552Z,12.90
2023-03-29T23:31:06.564Z,12.80
2023-03-29T23:33:36.215Z,12.90
2023-03-29T23:36:07.628Z,12.90
2023-03-29T23:38:38.647Z,13.10
2023-03-29T23:41:08.522Z,13.00
2023-03-29T23:43:40.591Z,13.00
2023-03-29T23:46:13.125Z,13.00
2023-03-29T23:48:44.608Z,12.90
2023-03-29T23:51:13.234Z,12.90
2023-03-29T23:53:41.311Z,13.00
2023-03-29T23:56:09.491Z,12.90
2023-03-29T23:58:39.044Z,13.00
